createdAt,value
2022-08-25T00:48:37.477Z,964.06
2022-08-25T00:53:39.005Z,964.02
2022-08-25T01:03:42.764Z,963.93
2022-08-25T01:13:46.975Z,963.9
2022-08-25T01:18:48.246Z,963.87
2022-08-25T01:23:50.464Z,963.83
2022-08-25T01:33:53.506Z,963.8
2022-08-25T01:38:55.486Z,963.76
2022-08-25T01:59:02.032Z,963.74
2022-08-25T02:19:08.911Z,963.76
2022-08-25T02:24:11.017Z,963.76
2022-08-25T02:34:13.644Z,963.74
2022-08-25T02:39:14.875Z,963.75
2022-08-25T02:54:20.672Z,963.65
2022-08-25T02:59:22.552Z,963.58
2022-08-25T03:04:24.510Z,963.47
2022-08-25T03:09:26.440Z,963.57
2022-08-25T03:14:28.253Z,963.59
2022-08-25T03:19:29.973Z,963.56
2022-08-25T03:24:31.515Z,963.57
2022-08-25T03:29:33.128Z,963.62
2022-08-25T03:34:35.253Z,963.57
2022-08-25T03:39:37.129Z,963.54
2022-08-25T03:44:39.263Z,963.53
2022-08-25T03:49:41.056Z,963.44
2022-08-25T03:54:43.127Z,963.44
2022-08-25T03:59:44.711Z,963.48
2022-08-25T04:04:46.425Z,963.44
2022-08-25T04:09:47.632Z,963.38
2022-08-25T04:14:49.477Z,963.46
2022-08-25T04:19:51.254Z,963.51
2022-08-25T04:24:52.711Z,963.53
2022-08-25T04:29:54.190Z,963.58
2022-08-25T04:34:55.934Z,963.56
2022-08-25T04:39:57.239Z,963.56
2022-08-25T04:44:59.283Z,963.51
2022-08-25T04:50:01.077Z,963.48
2022-08-25T04:55:02.996Z,963.53
2022-08-25T05:00:05.157Z,963.53
2022-08-25T05:05:07.216Z,963.52
2022-08-25T05:10:08.417Z,963.51
2022-08-25T05:15:09.767Z,963.44
2022-08-25T05:20:10.940Z,963.39
2022-08-25T05:25:12.221Z,963.39
2022-08-25T05:30:14.269Z,963.34
2022-08-25T05:35:16.174Z,963.4
2022-08-25T05:40:17.827Z,963.41
2022-08-25T05:45:20.550Z,963.42
2022-08-25T05:50:20.571Z,963.43
2022-08-25T05:55:22.343Z,963.4
2022-08-25T06:00:24.535Z,963.44
2022-08-25T06:05:26.385Z,963.41
2022-08-25T06:10:28.021Z,963.35
2022-08-25T06:15:29.565Z,963.35
2022-08-25T06:20:30.959Z,963.31
2022-08-25T06:25:32.450Z,963.2
2022-08-25T06:30:34.216Z,963.16
2022-08-25T06:35:35.828Z,963.27
2022-08-25T06:40:37.779Z,963.27
2022-08-25T06:45:39.395Z,963.25
2022-08-25T06:50:41.012Z,963.35
2022-08-25T06:55:42.483Z,963.39
2022-08-25T07:00:44.209Z,963.44
2022-08-25T07:05:45.932Z,963.37
2022-08-25T07:10:48.039Z,963.4
2022-08-25T07:15:49.057Z,963.34
2022-08-25T07:20:50.403Z,963.29
2022-08-25T07:25:52.139Z,963.35
2022-08-25T07:30:53.338Z,963.4
2022-08-25T07:35:54.966Z,963.33
2022-08-25T07:40:57.153Z,963.33
2022-08-25T07:45:58.392Z,963.36
2022-08-25T07:51:01.085Z,963.34
2022-08-25T08:01:03.085Z,963.29
2022-08-25T08:06:05.088Z,963.3
2022-08-25T08:11:06.488Z,963.33
2022-08-25T08:16:07.712Z,963.34
2022-08-25T08:21:08.866Z,963.32
2022-08-25T08:26:10.409Z,963.31
2022-08-25T08:31:12.587Z,963.3
2022-08-25T08:36:14.444Z,963.26
2022-08-25T08:41:16.451Z,963.26
2022-08-25T08:46:18.144Z,963.25
2022-08-25T08:51:19.804Z,963.14
2022-08-25T08:56:21.491Z,963.01
2022-08-25T09:01:22.954Z,963.06
2022-08-25T09:06:24.223Z,962.99
2022-08-25T09:11:26.447Z,962.97
2022-08-25T09:16:34.549Z,962.85
2022-08-25T09:21:28.983Z,962.87
2022-08-25T09:26:30.585Z,962.9
2022-08-25T09:31:32.240Z,962.92
2022-08-25T09:36:37.350Z,962.89
2022-08-25T09:41:35.781Z,962.88
2022-08-25T09:46:37.494Z,962.79
2022-08-25T09:51:42.724Z,962.72
2022-08-25T09:56:40.354Z,962.73
2022-08-25T10:01:41.543Z,962.76
2022-08-25T10:06:42.826Z,962.73
2022-08-25T10:11:44.623Z,962.69
2022-08-25T10:16:46.805Z,962.65
2022-08-25T10:21:47.504Z,962.62
2022-08-25T10:26:49.539Z,962.59
2022-08-25T10:31:51.540Z,962.58
2022-08-25T10:36:52.840Z,962.46
2022-08-25T10:41:54.334Z,962.44
2022-08-25T10:46:55.998Z,962.37
2022-08-25T10:51:58.112Z,962.34
2022-08-25T10:57:01.632Z,962.34
2022-08-25T11:02:01.164Z,962.27
2022-08-25T11:07:03.081Z,962.27
2022-08-25T11:12:05.261Z,962.23
2022-08-25T11:17:07.389Z,962.15
2022-08-25T11:22:08.754Z,962.13
2022-08-25T11:27:10.541Z,962.12
2022-08-25T11:32:11.721Z,962.13
2022-08-25T11:37:13.544Z,962.01
2022-08-25T11:42:15.613Z,961.98
2022-08-25T11:47:21.119Z,961.89
2022-08-25T11:52:19.672Z,961.87
2022-08-25T11:57:21.111Z,961.85
2022-08-25T12:02:22.842Z,961.84
2022-08-25T12:07:24.329Z,961.75
2022-08-25T12:12:26.207Z,961.78
2022-08-25T12:17:28.159Z,961.8
2022-08-25T12:22:29.534Z,961.82
2022-08-25T12:27:33.464Z,961.82
2022-08-25T12:32:33.432Z,961.79
2022-08-25T12:37:34.950Z,961.76
2022-08-25T12:42:36.826Z,961.77
2022-08-25T12:47:40.826Z,961.7
2022-08-25T12:52:40.678Z,961.75
2022-08-25T12:57:42.396Z,961.63
2022-08-25T13:02:45.061Z,961.67
2022-08-25T13:07:45.585Z,961.62
2022-08-25T13:12:47.660Z,961.56
2022-08-25T13:17:48.968Z,961.54
2022-08-25T13:22:53.962Z,961.47
2022-08-25T13:27:52.888Z,961.46
2022-08-25T13:32:54.295Z,961.4
2022-08-25T13:37:55.595Z,961.35
2022-08-25T13:42:57.540Z,961.33
2022-08-25T13:47:58.720Z,961.32
2022-08-25T13:53:01.061Z,961.28
2022-08-25T13:58:01.724Z,961.2
2022-08-25T14:03:03.691Z,961.19
2022-08-25T14:08:15.930Z,961.25
2022-08-25T14:13:07.312Z,961.24
2022-08-25T14:33:13.907Z,961.19
2022-08-25T14:38:15.503Z,961.1
2022-08-25T15:18:28.574Z,960.88
2022-08-25T15:38:35.017Z,960.91
2022-08-25T15:48:38.672Z,960.84
2022-08-25T15:53:39.871Z,960.73
2022-08-25T16:13:45.289Z,960.61
2022-08-25T16:18:46.712Z,960.61
2022-08-25T16:23:47.958Z,960.55
2022-08-25T16:33:53.487Z,960.47
2022-08-25T16:38:53.679Z,960.48
2022-08-25T16:43:55.493Z,960.51
2022-08-25T16:48:57.256Z,960.52
2022-08-25T16:59:01.170Z,960.53
2022-08-25T17:09:10.754Z,960.5
2022-08-25T17:24:16.229Z,960.51
2022-08-25T17:29:18.043Z,960.52
2022-08-25T17:34:20.415Z,960.5
2022-08-25T17:39:22.180Z,960.51
2022-08-25T17:44:22.725Z,960.56
2022-08-25T17:49:24.360Z,960.59
2022-08-25T17:54:26.068Z,960.64
2022-08-25T17:59:27.381Z,960.68
2022-08-25T18:04:29.534Z,960.62
2022-08-25T18:09:30.474Z,960.66
2022-08-25T18:14:32.206Z,960.68
2022-08-25T18:19:33.586Z,960.68
2022-08-25T18:24:34.997Z,960.78
2022-08-25T18:29:36.978Z,960.78
2022-08-25T18:34:38.157Z,960.76
2022-08-25T18:39:39.676Z,960.77
2022-08-25T18:44:43.758Z,960.77
2022-08-25T18:49:42.769Z,960.82
2022-08-25T18:54:44.064Z,960.81
2022-08-25T18:59:45.854Z,960.81
2022-08-25T19:04:47.502Z,960.83
2022-08-25T19:09:49.131Z,960.83
2022-08-25T19:14:51.114Z,960.83
2022-08-25T19:19:52.315Z,960.81
2022-08-25T19:24:53.830Z,960.8
2022-08-25T19:29:55.417Z,960.79
2022-08-25T19:34:57.316Z,960.79
2022-08-25T19:39:59.140Z,960.82
2022-08-25T19:45:01.158Z,960.82
2022-08-25T19:50:02.937Z,960.86
2022-08-25T19:55:04.505Z,960.94
2022-08-25T20:00:06.205Z,960.93
2022-08-25T20:05:08.182Z,960.9
2022-08-25T20:10:09.837Z,960.91
2022-08-25T20:15:11.991Z,960.88
2022-08-25T20:20:13.995Z,960.9
2022-08-25T20:25:15.660Z,960.96
2022-08-25T20:30:17.590Z,961.02
2022-08-25T20:35:18.891Z,961.04
2022-08-25T20:40:25.379Z,961.04
2022-08-25T20:45:22.736Z,961.01
2022-08-25T20:50:24.523Z,961.03
2022-08-25T20:55:26.500Z,961
2022-08-25T21:00:27.777Z,961.06
2022-08-25T21:05:29.885Z,961.02
2022-08-25T21:10:31.565Z,960.98
2022-08-25T21:15:32.989Z,960.96
2022-08-25T21:20:34.194Z,960.92
2022-08-25T21:25:35.889Z,960.91
2022-08-25T21:30:37.653Z,960.94
2022-08-25T21:35:39.617Z,960.87
2022-08-25T21:40:41.097Z,960.87
2022-08-25T21:45:46.553Z,960.93
2022-08-25T21:50:43.755Z,960.95
2022-08-25T21:55:45.801Z,960.97
2022-08-25T22:15:52.967Z,960.83
2022-08-25T22:20:54.934Z,960.83
2022-08-25T22:25:56.204Z,960.81
2022-08-25T22:30:58.275Z,960.77
2022-08-25T22:36:00.203Z,960.78
2022-08-25T22:41:01.649Z,960.83
2022-08-25T22:46:03.134Z,960.8
2022-08-25T22:51:04.368Z,960.81
2022-08-25T22:56:06.456Z,960.77
2022-08-25T23:01:07.652Z,960.79
2022-08-25T23:06:09.211Z,960.76
2022-08-25T23:11:10.424Z,960.72
2022-08-25T23:16:12.237Z,960.64
2022-08-25T23:21:14.311Z,960.61
2022-08-25T23:26:16.198Z,960.57
2022-08-25T23:31:17.613Z,960.52
2022-08-25T23:36:18.890Z,960.51
2022-08-25T23:41:20.947Z,960.48
2022-08-25T23:46:22.580Z,960.33
2022-08-25T23:51:23.996Z,960.29
2022-08-25T23:56:25.677Z,960.22
